createdAt,value
2017-10-04T00:00:24.379Z,7.65
2017-10-04T00:02:51.955Z,7.27
2017-10-04T00:05:19.479Z,8.13
2017-10-04T00:07:47.780Z,8.60
2017-10-04T00:10:16.419Z,7.95
2017-10-04T00:12:43.951Z,7.70
2017-10-04T00:15:11.519Z,6.80
2017-10-04T00:17:39.080Z,7.40
2017-10-04T00:20:06.615Z,7.40
2017-10-04T00:22:34.138Z,7.40
2017-10-04T00:25:02.271Z,7.43
2017-10-04T00:27:29.795Z,7.03
2017-10-04T00:29:57.318Z,7.30
2017-10-04T00:32:24.875Z,7.57
2017-10-04T00:34:52.416Z,7.33
2017-10-04T00:37:19.942Z,6.60
2017-10-04T00:39:47.508Z,7.18
2017-10-04T00:42:16.384Z,6.78
2017-10-04T00:44:43.907Z,7.33
2017-10-04T00:47:12.247Z,7.10
2017-10-04T00:49:39.775Z,7.47
2017-10-04T00:52:07.304Z,8.33
2017-10-04T00:54:35.627Z,7.80
2017-10-04T00:57:03.158Z,7.90
2017-10-04T00:59:30.691Z,7.77
2017-10-04T01:01:58.250Z,7.47
2017-10-04T01:04:25.783Z,8.23
2017-10-04T01:06:53.303Z,8.40
2017-10-04T01:09:20.907Z,8.20
2017-10-04T01:11:48.439Z,8.00
2017-10-04T01:14:17.195Z,7.60
2017-10-04T01:16:44.751Z,7.60
2017-10-04T01:19:13.963Z,7.67
2017-10-04T01:21:41.495Z,7.75
2017-10-04T01:24:09.063Z,7.03
2017-10-04T01:26:37.856Z,7.72
2017-10-04T01:29:06.148Z,8.77
2017-10-04T01:31:34.059Z,7.80
2017-10-04T01:34:01.587Z,8.10
2017-10-04T01:36:29.144Z,7.00
2017-10-04T01:38:56.694Z,6.90
2017-10-04T01:41:24.279Z,7.37
2017-10-04T01:43:51.806Z,8.13
2017-10-04T01:46:19.354Z,8.40
2017-10-04T01:48:47.646Z,8.07
2017-10-04T01:51:16.363Z,8.37
2017-10-04T01:53:43.943Z,7.53
2017-10-04T01:56:11.472Z,8.75
2017-10-04T01:58:38.994Z,8.27
2017-10-04T02:01:06.564Z,8.30
2017-10-04T02:03:34.939Z,8.17
2017-10-04T02:06:02.467Z,9.05
2017-10-04T02:08:30.023Z,8.60
2017-10-04T02:10:57.557Z,8.85
2017-10-04T02:13:25.083Z,9.10
2017-10-04T02:15:52.658Z,9.53
2017-10-04T02:18:20.194Z,8.67
2017-10-04T02:20:47.720Z,8.20
2017-10-04T02:23:16.418Z,9.90
2017-10-04T02:25:43.945Z,9.33
2017-10-04T02:28:11.999Z,8.50
2017-10-04T02:30:39.607Z,8.23
2017-10-04T02:33:07.135Z,8.73
2017-10-04T02:35:34.675Z,8.77
2017-10-04T02:38:02.247Z,7.97
2017-10-04T02:40:29.773Z,9.00
2017-10-04T02:42:57.300Z,8.73
2017-10-04T02:45:24.847Z,9.10
2017-10-04T02:47:52.374Z,8.73
2017-10-04T02:50:19.905Z,9.45
2017-10-04T02:52:47.467Z,7.90
2017-10-04T02:55:16.426Z,9.05
2017-10-04T02:57:44.007Z,9.13
2017-10-04T03:00:11.614Z,10.63
2017-10-04T03:02:39.159Z,9.63
2017-10-04T03:05:06.755Z,12.90
2017-10-04T03:07:34.316Z,18.50
2017-10-04T03:10:01.939Z,14.80
2017-10-04T03:12:30.240Z,11.48
2017-10-04T03:14:57.787Z,10.10
2017-10-04T03:17:25.319Z,9.70
2017-10-04T03:19:53.645Z,9.37
2017-10-04T03:22:21.495Z,8.83
2017-10-04T03:24:49.019Z,9.23
2017-10-04T03:27:16.572Z,9.70
2017-10-04T03:29:44.744Z,10.10
2017-10-04T03:32:12.300Z,9.80
2017-10-04T03:34:39.816Z,8.57
2017-10-04T03:37:07.373Z,8.70
2017-10-04T03:39:34.905Z,9.23
2017-10-04T03:42:03.196Z,8.13
2017-10-04T03:44:30.799Z,9.48
2017-10-04T03:46:58.327Z,8.83
2017-10-04T03:49:25.869Z,9.10
2017-10-04T03:51:54.187Z,8.60
2017-10-04T03:54:21.715Z,8.70
2017-10-04T03:56:49.251Z,8.43
2017-10-04T03:59:17.592Z,9.53
2017-10-04T04:01:45.129Z,9.27
2017-10-04T04:04:13.596Z,10.10
2017-10-04T04:06:41.174Z,9.50
2017-10-04T04:09:08.779Z,9.63
2017-10-04T04:11:38.416Z,9.13
2017-10-04T04:14:05.967Z,9.20
2017-10-04T04:16:33.585Z,9.25
2017-10-04T04:19:01.109Z,8.83
2017-10-04T04:21:28.676Z,10.40
2017-10-04T04:23:56.203Z,10.10
2017-10-04T04:26:24.495Z,9.57
2017-10-04T04:28:52.128Z,9.40
2017-10-04T04:31:20.215Z,9.57
2017-10-04T04:33:48.512Z,9.40
2017-10-04T04:36:17.160Z,10.40
2017-10-04T04:38:56.715Z,10.47
2017-10-04T04:41:25.044Z,10.00
2017-10-04T04:43:52.580Z,10.10
2017-10-04T04:46:20.107Z,9.80
2017-10-04T04:48:48.455Z,9.30
2017-10-04T04:51:16.383Z,9.90
2017-10-04T04:53:43.907Z,11.20
2017-10-04T04:56:12.238Z,10.60
2017-10-04T04:58:39.773Z,10.03
2017-10-04T05:01:07.295Z,9.90
2017-10-04T05:03:34.846Z,10.03
2017-10-04T05:06:02.366Z,10.20
2017-10-04T05:08:29.899Z,11.50
2017-10-04T05:10:57.754Z,12.60
2017-10-04T05:13:26.059Z,10.90
2017-10-04T05:15:53.599Z,10.53
2017-10-04T05:18:21.924Z,13.63
2017-10-04T05:20:49.464Z,12.80
2017-10-04T05:23:17.000Z,11.30
2017-10-04T05:25:44.566Z,9.93
2017-10-04T05:28:13.996Z,10.90
2017-10-04T05:30:41.545Z,12.30
2017-10-04T05:33:09.751Z,13.23
2017-10-04T05:35:37.279Z,11.43
2017-10-04T05:38:04.817Z,11.10
2017-10-04T05:40:33.177Z,9.80
2017-10-04T05:43:00.708Z,10.60
2017-10-04T05:45:28.246Z,10.00
2017-10-04T05:47:55.818Z,9.33
2017-10-04T05:50:23.375Z,9.80
2017-10-04T05:52:50.906Z,9.83
2017-10-04T05:55:18.485Z,8.38
2017-10-04T05:57:46.011Z,9.60
2017-10-04T06:00:15.431Z,9.40
2017-10-04T06:02:42.987Z,8.97
2017-10-04T06:05:10.515Z,8.18
2017-10-04T06:07:38.042Z,8.03
2017-10-04T06:10:05.584Z,8.13
2017-10-04T06:12:33.119Z,8.18
2017-10-04T06:15:01.406Z,8.70
2017-10-04T06:17:29.020Z,9.53
2017-10-04T06:19:56.559Z,9.40
2017-10-04T06:22:24.090Z,8.33
2017-10-04T06:24:51.643Z,7.30
2017-10-04T06:27:19.170Z,9.00
2017-10-04T06:29:46.699Z,8.03
2017-10-04T06:32:15.522Z,7.18
2017-10-04T06:34:43.338Z,6.97
2017-10-04T06:37:10.858Z,6.80
2017-10-04T06:39:38.465Z,7.53
2017-10-04T06:42:05.989Z,7.23
2017-10-04T06:44:34.278Z,7.07
2017-10-04T06:47:01.835Z,7.43
2017-10-04T06:49:29.363Z,7.70
2017-10-04T06:51:56.882Z,6.70
2017-10-04T06:54:24.435Z,7.43
2017-10-04T06:56:51.967Z,7.93
2017-10-04T06:59:20.263Z,7.43
2017-10-04T07:01:47.863Z,8.47
2017-10-04T07:04:15.508Z,7.60
2017-10-04T07:06:43.031Z,8.10
2017-10-04T07:09:10.587Z,7.70
2017-10-04T07:11:38.123Z,7.40
2017-10-04T07:14:06.423Z,7.60
2017-10-04T07:16:33.979Z,7.90
2017-10-04T07:19:01.521Z,6.60
2017-10-04T07:21:29.824Z,6.53
2017-10-04T07:23:57.415Z,6.10
2017-10-04T07:26:24.948Z,6.37
2017-10-04T07:28:53.623Z,7.15
2017-10-04T07:31:21.203Z,6.12
2017-10-04T07:33:48.735Z,5.37
2017-10-04T07:36:16.419Z,5.30
2017-10-04T07:38:43.991Z,5.40
2017-10-04T07:41:11.515Z,6.03
2017-10-04T07:43:39.059Z,6.70
2017-10-04T07:46:06.662Z,6.53
2017-10-04T07:48:34.194Z,6.57
2017-10-04T07:51:01.731Z,7.23
2017-10-04T07:53:29.296Z,6.43
2017-10-04T07:55:56.823Z,6.03
2017-10-04T07:58:24.383Z,6.30
2017-10-04T08:00:51.938Z,6.30
2017-10-04T08:03:19.467Z,5.90
2017-10-04T08:05:47.003Z,6.67
2017-10-04T08:08:16.387Z,6.32
2017-10-04T08:10:43.923Z,7.07
2017-10-04T08:13:11.456Z,7.00
2017-10-04T08:15:39.014Z,6.00
2017-10-04T08:18:06.546Z,6.07
2017-10-04T08:20:34.116Z,6.63
2017-10-04T08:23:01.704Z,7.87
2017-10-04T08:25:29.239Z,8.43
2017-10-04T08:27:56.799Z,6.53
2017-10-04T08:30:25.211Z,7.03
2017-10-04T08:32:52.748Z,6.30
2017-10-04T08:35:20.279Z,7.10
2017-10-04T08:37:48.135Z,6.70
2017-10-04T08:40:17.271Z,7.53
2017-10-04T08:42:44.803Z,7.53
2017-10-04T08:45:12.358Z,6.53
2017-10-04T08:47:49.624Z,7.03
2017-10-04T08:50:17.243Z,7.67
2017-10-04T08:52:44.775Z,7.13
2017-10-04T08:55:12.305Z,7.63
2017-10-04T08:57:39.865Z,8.47
2017-10-04T09:00:07.395Z,7.10
2017-10-04T09:02:34.935Z,7.50
2017-10-04T09:05:08.437Z,7.03
2017-10-04T09:07:35.963Z,6.00
2017-10-04T09:10:03.488Z,6.10
2017-10-04T09:12:31.076Z,6.13
2017-10-04T09:14:58.635Z,6.03
2017-10-04T09:17:26.175Z,5.70
2017-10-04T09:19:53.730Z,5.97
2017-10-04T09:22:21.262Z,5.32
2017-10-04T09:24:48.795Z,5.63
2017-10-04T09:27:16.515Z,5.80
2017-10-04T09:29:44.044Z,5.20
2017-10-04T09:32:11.571Z,6.37
2017-10-04T09:34:39.951Z,6.60
2017-10-04T09:37:08.252Z,5.95
2017-10-04T09:39:36.622Z,6.20
2017-10-04T09:42:04.232Z,5.90
2017-10-04T09:44:31.836Z,5.30
2017-10-04T09:47:00.183Z,4.83
2017-10-04T09:49:27.770Z,5.12
2017-10-04T09:51:55.331Z,4.57
2017-10-04T09:54:22.922Z,3.90
2017-10-04T09:56:50.655Z,4.25
2017-10-04T09:59:18.174Z,3.87
2017-10-04T10:01:45.714Z,4.07
2017-10-04T10:04:15.339Z,3.70
2017-10-04T10:06:42.871Z,4.50
2017-10-04T10:09:10.406Z,4.82
2017-10-04T10:11:37.963Z,4.60
2017-10-04T10:14:06.254Z,4.87
2017-10-04T10:16:33.851Z,4.27
2017-10-04T10:19:01.443Z,5.00
2017-10-04T10:21:28.971Z,4.20
2017-10-04T10:23:56.495Z,4.00
2017-10-04T10:26:24.038Z,3.97
2017-10-04T10:28:51.585Z,4.67
2017-10-04T10:31:19.111Z,4.10
2017-10-04T10:33:46.684Z,4.10
2017-10-04T10:36:15.483Z,4.32
2017-10-04T10:38:43.079Z,4.70
2017-10-04T10:41:11.735Z,3.42
2017-10-04T10:43:39.263Z,4.10
2017-10-04T10:46:06.799Z,3.67
2017-10-04T10:48:34.363Z,3.80
2017-10-04T10:51:01.888Z,3.10
2017-10-04T10:53:30.184Z,4.55
2017-10-04T10:55:57.739Z,3.47
2017-10-04T10:58:26.026Z,3.80
2017-10-04T11:00:53.551Z,3.67
2017-10-04T11:03:21.393Z,3.10
2017-10-04T11:05:48.923Z,3.30
2017-10-04T11:08:16.462Z,4.47
2017-10-04T11:10:44.019Z,3.40
2017-10-04T11:13:12.315Z,3.30
2017-10-04T11:15:39.835Z,3.90
2017-10-04T11:18:07.397Z,4.40
2017-10-04T11:20:35.704Z,5.10
2017-10-04T11:23:03.243Z,3.90
2017-10-04T11:25:31.635Z,4.10
2017-10-04T11:27:59.167Z,3.83
2017-10-04T11:30:27.807Z,3.67
2017-10-04T11:32:55.363Z,4.17
2017-10-04T11:35:22.895Z,3.77
2017-10-04T11:37:51.191Z,3.62
2017-10-04T11:40:18.747Z,3.28
2017-10-04T11:42:46.819Z,3.50
2017-10-04T11:45:15.528Z,3.97
2017-10-04T11:47:43.156Z,3.27
2017-10-04T11:50:16.604Z,3.30
2017-10-04T11:52:44.210Z,3.30
2017-10-04T11:55:11.768Z,3.33
2017-10-04T11:57:40.059Z,3.00
2017-10-04T12:00:07.619Z,3.80
2017-10-04T12:02:35.151Z,2.40
2017-10-04T12:05:03.454Z,3.10
2017-10-04T12:07:31.049Z,3.00
2017-10-04T12:09:58.583Z,3.03
2017-10-04T12:12:26.123Z,3.53
2017-10-04T12:14:54.471Z,3.37
2017-10-04T12:17:22.003Z,2.70
2017-10-04T12:19:49.536Z,2.90
2017-10-04T12:22:17.099Z,3.13
2017-10-04T12:24:44.640Z,2.93
2017-10-04T12:27:13.868Z,2.80
2017-10-04T12:29:41.451Z,3.00
2017-10-04T12:32:08.984Z,2.53
2017-10-04T12:34:36.624Z,3.00
2017-10-04T12:37:04.953Z,2.70
2017-10-04T12:39:32.481Z,3.67
2017-10-04T12:42:00.016Z,3.47
2017-10-04T12:44:28.156Z,3.70
2017-10-04T12:46:55.688Z,4.10
2017-10-04T12:49:23.210Z,3.20
2017-10-04T12:51:51.584Z,3.30
2017-10-04T12:54:19.875Z,3.27
2017-10-04T12:56:47.411Z,3.43
2017-10-04T12:59:16.511Z,3.20
2017-10-04T13:01:44.050Z,3.97
2017-10-04T13:04:11.588Z,3.30
2017-10-04T13:06:39.160Z,4.17
2017-10-04T13:09:06.694Z,3.37
2017-10-04T13:11:34.332Z,3.20
2017-10-04T13:14:02.075Z,3.83
2017-10-04T13:16:30.379Z,3.92
2017-10-04T13:18:57.912Z,3.70
2017-10-04T13:21:26.240Z,2.95
2017-10-04T13:23:53.778Z,3.40
2017-10-04T13:26:21.318Z,3.20
2017-10-04T13:28:49.655Z,3.53
2017-10-04T13:31:17.183Z,3.20
2017-10-04T13:33:44.715Z,3.47
2017-10-04T13:36:12.286Z,4.10
2017-10-04T13:38:39.815Z,3.27
2017-10-04T13:41:07.360Z,2.93
2017-10-04T13:43:34.937Z,3.20
2017-10-04T13:46:03.712Z,2.87
2017-10-04T13:48:31.250Z,2.93
2017-10-04T13:50:58.804Z,3.90
2017-10-04T13:53:26.331Z,3.13
2017-10-04T13:55:53.860Z,3.23
2017-10-04T13:58:22.227Z,3.85
2017-10-04T14:00:49.852Z,3.77
2017-10-04T14:03:17.498Z,3.03
2017-10-04T14:05:45.103Z,3.37
2017-10-04T14:08:12.712Z,3.30
2017-10-04T14:10:40.359Z,3.67
2017-10-04T14:13:08.796Z,3.30
2017-10-04T14:15:36.380Z,3.40
2017-10-04T14:18:04.030Z,3.20
2017-10-04T14:20:31.648Z,3.13
2017-10-04T14:22:59.256Z,2.97
2017-10-04T14:25:26.851Z,3.57
2017-10-04T14:27:54.459Z,3.63
2017-10-04T14:30:23.629Z,3.60
2017-10-04T14:32:54.964Z,3.40
2017-10-04T14:35:24.290Z,3.12
2017-10-04T14:37:51.823Z,3.53
2017-10-04T14:40:22.700Z,3.62
2017-10-04T14:42:50.312Z,3.80
2017-10-04T14:45:20.209Z,3.87
2017-10-04T14:47:50.941Z,4.27
2017-10-04T14:50:19.333Z,3.90
2017-10-04T14:52:47.642Z,3.97
2017-10-04T14:55:17.329Z,4.07
2017-10-04T14:57:44.941Z,3.70
2017-10-04T15:00:12.747Z,4.08
2017-10-04T15:02:40.423Z,3.83
2017-10-04T15:05:07.979Z,4.20
2017-10-04T15:07:37.280Z,4.32
2017-10-04T15:10:06.503Z,4.43
2017-10-04T15:12:34.077Z,4.30
2017-10-04T15:15:01.729Z,5.07
2017-10-04T15:17:29.509Z,4.35
2017-10-04T15:19:57.147Z,4.47
2017-10-04T15:22:25.775Z,4.45
2017-10-04T15:24:53.468Z,4.87
2017-10-04T15:27:21.109Z,4.83
2017-10-04T15:29:48.663Z,4.47
2017-10-04T15:34:50.438Z,4.77
2017-10-04T15:37:19.135Z,4.90
2017-10-04T15:39:46.688Z,3.97
2017-10-04T15:42:26.384Z,15.77
2017-10-04T15:48:27.908Z,5.20
2017-10-04T15:50:56.164Z,5.35
2017-10-04T15:53:23.714Z,5.10
2017-10-04T15:55:51.287Z,5.30
2017-10-04T15:58:18.852Z,5.47
2017-10-04T16:00:46.889Z,5.33
2017-10-04T16:03:25.357Z,5.32
2017-10-04T16:14:22.974Z,6.82
2017-10-04T16:16:50.548Z,6.37
2017-10-04T16:19:18.147Z,6.10
2017-10-04T16:21:45.931Z,5.07
2017-10-04T16:24:15.431Z,5.53
2017-10-04T16:26:42.996Z,4.60
2017-10-04T16:29:10.575Z,5.90
2017-10-04T16:31:38.833Z,6.70
2017-10-04T16:34:06.410Z,6.82
2017-10-04T16:36:34.004Z,6.30
2017-10-04T16:39:03.328Z,6.00
2017-10-04T16:41:31.715Z,5.97
2017-10-04T16:43:59.325Z,5.47
2017-10-04T16:46:26.956Z,5.27
2017-10-04T16:48:55.056Z,6.93
2017-10-04T16:51:22.681Z,5.30
2017-10-04T16:53:50.324Z,4.90
2017-10-04T16:56:19.651Z,5.16
2017-10-04T16:58:47.248Z,5.10
2017-10-04T17:01:16.440Z,4.50
2017-10-04T17:03:43.987Z,8.70
2017-10-04T17:06:11.795Z,11.48
2017-10-04T17:08:40.103Z,10.23
2017-10-04T17:11:07.636Z,13.00
2017-10-04T17:13:35.966Z,12.33
2017-10-04T17:16:03.523Z,47.17
2017-10-04T17:18:31.108Z,27.05
2017-10-04T17:20:59.460Z,28.83
2017-10-04T17:23:26.991Z,20.33
2017-10-04T17:25:54.525Z,13.93
2017-10-04T17:28:22.147Z,14.10
2017-10-04T17:30:51.095Z,16.67
2017-10-04T17:33:20.414Z,15.77
2017-10-04T17:35:48.828Z,11.35
2017-10-04T17:38:17.344Z,10.32
2017-10-04T17:40:45.703Z,9.30
2017-10-04T17:43:24.570Z,8.10
2017-10-04T17:55:13.235Z,6.70
2017-10-04T17:57:40.776Z,7.07
2017-10-04T18:00:09.161Z,7.20
2017-10-04T18:02:39.639Z,6.80
2017-10-04T18:05:07.228Z,6.53
2017-10-04T18:07:34.818Z,6.90
2017-10-04T18:10:02.414Z,7.07
2017-10-04T18:12:31.089Z,7.93
2017-10-04T18:14:59.456Z,6.90
2017-10-04T18:17:27.048Z,7.70
2017-10-04T18:19:54.616Z,7.10
2017-10-04T18:22:22.168Z,6.40
2017-10-04T18:24:49.787Z,7.83
2017-10-04T18:27:17.380Z,8.57
2017-10-04T18:29:45.675Z,6.87
2017-10-04T18:32:25.234Z,6.57
2017-10-04T18:40:01.800Z,6.80
2017-10-04T18:42:29.335Z,6.63
2017-10-04T18:44:56.879Z,6.23
2017-10-04T18:47:24.435Z,6.50
2017-10-04T18:49:51.964Z,5.87
2017-10-04T18:52:19.490Z,5.43
2017-10-04T18:54:47.056Z,6.47
2017-10-04T18:57:16.279Z,6.10
2017-10-04T18:59:43.826Z,6.20
2017-10-04T19:02:12.435Z,8.03
2017-10-04T19:04:39.959Z,6.23
2017-10-04T19:07:08.251Z,5.70
2017-10-04T19:09:35.806Z,5.97
2017-10-04T19:12:03.343Z,5.77
2017-10-04T19:14:30.895Z,5.87
2017-10-04T19:16:58.476Z,5.07
2017-10-04T19:19:26.027Z,6.47
2017-10-04T19:21:53.560Z,5.70
2017-10-04T19:24:21.187Z,7.63
2017-10-04T19:26:48.731Z,6.00
2017-10-04T19:29:16.539Z,5.12
2017-10-04T19:31:44.159Z,5.53
2017-10-04T19:34:11.770Z,5.50
2017-10-04T19:36:39.368Z,5.30
2017-10-04T19:39:07.738Z,6.53
2017-10-04T19:41:39.440Z,7.53
2017-10-04T19:44:07.747Z,6.10
2017-10-04T19:46:36.389Z,6.33
2017-10-04T19:49:03.968Z,5.83
2017-10-04T19:51:31.525Z,5.90
2017-10-04T19:53:59.176Z,6.90
2017-10-04T19:56:26.741Z,7.67
2017-10-04T19:58:54.291Z,7.00
2017-10-04T20:01:21.863Z,8.30
2017-10-04T20:03:49.390Z,6.90
2017-10-04T20:06:17.706Z,7.50
2017-10-04T20:08:45.295Z,7.17
2017-10-04T20:11:13.768Z,6.40
2017-10-04T20:13:41.369Z,6.50
2017-10-04T20:16:09.000Z,6.37
2017-10-04T20:18:36.523Z,5.60
2017-10-04T20:21:04.059Z,5.70
2017-10-04T20:23:32.483Z,6.30
2017-10-04T20:26:00.015Z,5.67
2017-10-04T20:28:27.546Z,5.15
2017-10-04T20:30:55.148Z,4.87
2017-10-04T20:33:22.679Z,5.95
2017-10-04T20:35:50.283Z,6.97
2017-10-04T20:38:17.912Z,7.37
2017-10-04T20:40:45.444Z,7.17
2017-10-04T20:43:14.560Z,9.63
2017-10-04T20:45:42.181Z,10.47
2017-10-04T20:48:09.736Z,8.17
2017-10-04T20:50:37.322Z,8.83
2017-10-04T20:53:05.716Z,7.33
2017-10-04T20:55:33.264Z,6.50
2017-10-04T20:58:01.564Z,6.53
2017-10-04T21:00:29.118Z,6.87
2017-10-04T21:02:56.646Z,5.73
2017-10-04T21:05:24.172Z,5.73
2017-10-04T21:07:51.783Z,5.53
2017-10-04T21:10:19.610Z,5.40
2017-10-04T21:12:47.218Z,5.47
2017-10-04T21:18:06.887Z,5.63
2017-10-04T21:20:35.317Z,6.03
2017-10-04T21:23:02.915Z,5.73
2017-10-04T21:25:30.442Z,5.55
2017-10-04T21:27:57.970Z,5.53
2017-10-04T21:30:26.291Z,5.82
2017-10-04T21:32:54.625Z,5.70
2017-10-04T21:35:22.264Z,5.60
2017-10-04T21:37:55.131Z,5.90
2017-10-04T21:40:22.751Z,5.42
2017-10-04T21:42:50.342Z,5.80
2017-10-04T21:45:18.040Z,5.33
2017-10-04T21:47:45.575Z,5.23
2017-10-04T21:50:24.507Z,5.50
2017-10-04T22:02:22.131Z,5.37
2017-10-04T22:04:49.683Z,5.90
2017-10-04T22:07:17.270Z,6.17
2017-10-04T22:09:44.851Z,5.40
2017-10-04T22:12:12.488Z,4.90
2017-10-04T22:14:40.028Z,5.20
2017-10-04T22:17:07.584Z,5.27
2017-10-04T22:19:35.120Z,5.70
2017-10-04T22:22:02.655Z,5.50
2017-10-04T22:24:31.000Z,5.00
2017-10-04T22:26:58.531Z,5.30
2017-10-04T22:29:26.068Z,5.30
2017-10-04T22:31:53.688Z,5.57
2017-10-04T22:34:21.211Z,4.93
2017-10-04T22:36:48.751Z,5.13
2017-10-04T22:39:17.233Z,5.27
2017-10-04T22:41:44.763Z,5.27
2017-10-04T22:44:12.294Z,5.37
2017-10-04T22:46:40.217Z,5.63
2017-10-04T22:49:07.739Z,5.57
2017-10-04T22:51:35.262Z,5.60
2017-10-04T22:54:02.819Z,6.27
2017-10-04T22:56:30.351Z,5.50
2017-10-04T22:58:57.933Z,6.07
2017-10-04T23:01:25.523Z,5.93
2017-10-04T23:03:53.567Z,6.10
2017-10-04T23:06:21.090Z,5.90
2017-10-04T23:08:48.687Z,5.37
2017-10-04T23:11:16.366Z,5.43
2017-10-04T23:13:43.885Z,5.60
2017-10-04T23:16:11.491Z,5.87
2017-10-04T23:18:39.019Z,7.03
2017-10-04T23:21:06.549Z,6.60
2017-10-04T23:23:34.131Z,6.60
2017-10-04T23:26:01.669Z,6.30
2017-10-04T23:28:29.203Z,6.10
2017-10-04T23:30:56.816Z,7.33
2017-10-04T23:33:24.355Z,6.80
2017-10-04T23:35:51.882Z,6.43
2017-10-04T23:38:19.452Z,6.33
2017-10-04T23:40:47.749Z,6.93
2017-10-04T23:43:15.564Z,6.95
2017-10-04T23:45:43.111Z,7.70
2017-10-04T23:48:10.883Z,7.20
2017-10-04T23:50:38.402Z,6.78
2017-10-04T23:53:05.982Z,7.33
2017-10-04T23:55:33.617Z,8.50
2017-10-04T23:58:01.160Z,7.20
